Aérodrome :
LOGIN :

S'inscrire | Disclaimer

   EN    FR    IT 

 










Légende :    VFR   VFR Marginal   IFR   IFR Intensif   IFR Très Intensif
Visi : 
Plafond : 
>= 8 km
>= 3000ft
5 à 8 km
1000 à 3000 ft
1500m à 5 km
500 à 1000 ft
800 à 1500m
200 à 500 ft
< 800m
< 200 ft
Symboles :   Orages  Brouillard  Fortes neiges  Fortes précipitations  Vent > 20 kt
SIGMETs :   Divers  Orages  Givrage  Turbulence  Onde Orograph.  Cendres Volcan.







- Altitude de l'aérodrome : 1411 ft
- Code IATA : ZHI


LSZG - Grenchen

DERNIER METAR :
  • 261150Z 09013G24KT 9999 SCT050 10/M00 Q1028 NOSIG

METARs EXPIRÉS :
  • 261120Z 08010KT 9999 SCT050 08/M02 Q1028 NOSIG
  • 261050Z 07013KT 9999 BKN046 08/M03 Q1029 NOSIG
  • 261020Z 07015KT 9999 SCT044 08/M03 Q1029 NOSIG
  • 260950Z 07013KT 9999 BKN046 07/M03 Q1029 NOSIG
  • 260920Z 05013KT 9999 FEW037 BKN045 07/M02 Q1029 NOSIG

TAF TAF LSZG
Valide du 26 à 12h jusqu'au 26 à 21h UTC


261125Z 2612/2621 04013KT 9999 SCT040
PROB40
TEMPO 2612/2617 04015G25KT
BECMG 2614/2617 CAVOK
BECMG 2618/2621 VRB03KT
ATIS : +41 32 396 96 33
Pas de NOTAMs connus pour ce terrain.
1 SIGMET publié pour la FIR Switzerland (LSAS) :
 
Onde orographique forte
LSAS SIGMET 2 VALID 261125/261500 LSZH
LSAS SWITZERLAND FIR/UIR SEV MTW FCST WI N4653 E01050 - N4535 E00949 - N4533 E00720 - N4554 E00659 - N4625 E00738 - N4639 E00845 - N4653 E01050 FL120/400 STNR WKN=



MET'MAP, la Météo Aéronautique d'un coup d'oeil ! - Copyright ORBIFLY Décembre 2007 - Disclaimer

ORBIFLY MET'MAP TEAM :

Programmation & Développement : Alexandra Zaïnal
Conception & Développement : Baudouin d'Aumeries
Co-Programmation & Développement : Marc-Olivier Méhu
Soutien technique & logistique : Manuel Goepfert

Contact : metmap@orbifly.com




SOURCES & CREDITS :

   NOAA